Warning: Javascript must be enabled to use all the features on this page!


Page Loading - Please Wait...

* We've detected you're using a mobile device. Find our mobile dedicated web site here.
Click to hideNews Bulletins
Click to hide state-specific text

USGS 02087570 NEUSE RIVER AT SMITHFIELD, NC

PROVISIONAL DATA SUBJECT TO REVISION

Click to hidestation-specific text
Corps of Engineers Logo This station is operated in cooperation with the U.S. Army Corps of Engineers.

Forecasts for gage height (stage) are available for this station through the National Weather Service's River Forecast Center.

Boating safety tips
This station managed by the South Atlantic WSC Raleigh Field Office.

Available Parameters Available Period
All 2 Available Parameters for this site
  
00060 Discharge 1985-10-01  1991-09-30
00065 Gage height 2007-10-01  2018-08-19

Graph
Graph w/ stats
Graph w/o stats
Graph w/ (up to 3) parms
Table
Tab-separated
Days  (7)
 

  -- or --
Begin date
 

End date
 

Summary of all available data for this site
Instantaneous-data availability statement
Gage height, feet
TIMEAug 12Aug 13Aug 14Aug 15Aug 16Aug 17Aug 18Aug 19
00:00 EDT4.94P  7.91P  10.81P  7.15P  5.80P  5.23P  4.96P  5.20P  
00:15 EDT4.94P  7.92P  10.76P  7.11P  5.79P  5.23P  4.96P  5.26P  
00:30 EDT4.94P  7.93P  10.72P  7.07P  5.78P  5.22P  4.95P  5.28P  
00:45 EDT4.94P  7.93P  10.68P  7.03P  5.77P  5.22P  4.95P  5.29P  
01:00 EDT4.94P  7.91P  10.63P  6.98P  5.76P  5.21P  4.95P  5.28P  
01:15 EDT4.93P  7.89P  10.57P  6.95P  5.75P  5.21P  4.95P  5.29P  
01:30 EDT4.93P  7.87P  10.53P  6.91P  5.74P  5.21P  4.95P   
01:45 EDT4.93P  7.86P  10.48P  6.87P  5.73P  5.21P  4.94P   
02:00 EDT4.93P  7.84P  10.42P  6.83P  5.72P  5.22P  4.94P   
02:15 EDT4.94P  7.80P  10.36P  6.80P  5.72P  5.22P  4.94P   
02:30 EDT4.95P  7.78P  10.30P  6.77P  5.71P  5.22P  4.94P   
02:45 EDT4.96P  7.75P  10.25P  6.74P  5.70P  5.22P  4.94P   
03:00 EDT4.96P  7.73P  10.20P  6.70P  5.69P  5.22P  4.94P   
03:15 EDT4.96P  7.69P  10.14P  6.67P  5.68P  5.21P  4.94P   
03:30 EDT4.96P  7.67P  10.08P  6.64P  5.67P  5.21P  4.93P   
03:45 EDT4.97P  7.64P  10.02P  6.61P  5.66P  5.21P  4.94P   
04:00 EDT4.97P  7.60P  9.96P  6.58P  5.66P  5.21P  4.94P   
04:15 EDT4.97P  7.56P  9.90P  6.55P  5.65P  5.20P  4.95P   
04:30 EDT4.97P  7.53P  9.83P  6.52P  5.65P  5.20P  4.95P   
04:45 EDT4.98P  7.49P  9.77P  6.50P  5.65P  5.20P  4.95P   
05:00 EDT4.97P  7.45P  9.71P  6.47P  5.65P  5.20P  4.95P   
05:15 EDT4.97P  7.42P  9.64P  6.45P  5.64P  5.20P  4.95P   
05:30 EDT4.96P  7.38P  9.59P  6.42P  5.64P  5.19P  4.93P   
05:45 EDT4.95P  7.35P  9.52P  6.41P  5.63P  5.19P  4.93P   
06:00 EDT4.94P  7.31P  9.46P  6.39P  5.63P  5.19P  4.93P   
06:15 EDT4.94P  7.28P  9.41P  6.37P  5.62P  5.18P  4.93P   
06:30 EDT4.92P  7.25P  9.34P  6.35P  5.61P  5.18P  4.94P   
06:45 EDT4.92P  7.22P  9.29P  6.33P  5.61P  5.18P  4.94P   
07:00 EDT4.91P  7.20P  9.23P  6.31P  5.61P  5.18P  4.94P   
07:15 EDT4.90P  7.18P  9.16P  6.30P  5.60P  5.18P  4.94P   
07:30 EDT4.90P  7.17P  9.10P  6.29P  5.60P  5.18P  4.93P   
07:45 EDT4.89P  7.17P  9.03P  6.28P  5.60P  5.17P  4.92P   
08:00 EDT4.89P  7.20P  8.98P  6.27P  5.60P  5.18P  4.92P   
08:15 EDT4.89P  7.23P  8.92P  6.26P  5.60P  5.18P  4.92P   
08:30 EDT4.89P  7.29P  8.86P  6.24P  5.60P  5.18P  4.93P   
08:45 EDT4.88P  7.35P  8.80P  6.23P  5.59P  5.18P  4.93P   
09:00 EDT4.88P  7.45P  8.75P  6.22P  5.59P  5.18P  4.94P   
09:15 EDT4.88P  7.55P  8.69P  6.22P  5.58P  5.18P  4.94P   
09:30 EDT4.88P  7.67P  8.64P  6.21P  5.59P  5.16P  4.94P   
09:45 EDT4.88P  7.81P  8.59P  6.20P  5.59P  5.15P  4.95P   
10:00 EDT4.89P  7.96P  8.53P  6.20P  5.54P  5.15P  4.95P   
10:15 EDT4.90P  8.13P  8.48P  6.20P  5.57P  5.14P  4.95P   
10:30 EDT4.90P  8.30P  8.43P  6.20P  5.56P  5.14P  4.95P   
10:45 EDT4.92P  8.47P  8.38P  6.19P  5.56P  5.14P  4.95P   
11:00 EDT4.95P  8.62P  8.34P  6.19P  5.56P  5.14P  4.94P   
11:15 EDT5.00P  8.79P  8.28P  6.19P  5.56P  5.14P  4.95P   
11:30 EDT5.09P  8.94P  8.23P  6.19P  5.55P  5.14P  4.94P   
11:45 EDT5.19P  9.11P  8.19P  6.18P  5.55P  5.14P  4.94P   
12:00 EDT5.34P  9.27P  8.14P  6.18P  5.54P  5.14P  4.95P   
12:15 EDT5.51P  9.41P  8.09P  6.17P  5.54P  5.14P  4.95P   
12:30 EDT5.70P  9.57P  8.03P  6.17P  5.53P  5.14P  4.94P   
12:45 EDT5.92P  9.69P  7.99P  6.17P  5.53P  5.14P  4.93P   
13:00 EDT6.13P  9.81P  7.94P  6.16P  5.52P  5.13P  4.92P   
13:15 EDT6.36P  9.93P  8.00P  6.17P  5.53P  5.14P  4.91P   
13:30 EDT6.58P  10.04P  8.07P  6.16P  5.52P  5.14P  4.91P   
13:45 EDT6.78P  10.14P  8.09P  6.16P  5.52P  5.14P  4.90P   
14:00 EDT6.97P  10.23P  8.06P  6.16P  5.52P  5.14P  4.89P   
14:15 EDT7.15P  10.32P  7.99P  6.15P  5.52P  5.14P  4.90P   
14:30 EDT7.31P  10.42P  7.93P  6.15P  5.52P  5.14P  4.90P   
14:45 EDT7.46P  10.48P  7.88P  6.15P  5.51P  5.14P  4.89P   
15:00 EDT7.60P  10.56P  7.83P  6.14P  5.52P  5.13P  4.88P   
15:15 EDT7.71P  10.62P  7.78P  6.13P  5.51P  5.13P  4.88P   
15:30 EDT7.82P  10.70P  7.76P  6.14P  5.50P  5.13P  4.88P   
15:45 EDT7.92P  10.75P  7.73P  6.14P  5.50P  5.13P  4.88P   
16:00 EDT7.99P  10.79P  7.70P  6.13P  5.50P  5.13P  4.87P   
16:15 EDT8.06P  10.85P  7.69P  6.13P  5.49P  5.12P  4.87P   
16:30 EDT8.11P  10.89P  7.70P  6.13P  5.48P  5.12P  4.87P   
16:45 EDT8.16P  10.92P  7.71P  6.12P  5.47P  5.12P  4.86P   
17:00 EDT8.20P  10.96P  7.73P  6.11P  5.47P  5.11P  4.86P   
17:15 EDT8.24P  11.01P  7.75P  6.10P  5.46P  5.11P  4.85P   
17:30 EDT8.27P  11.03P  7.78P  6.09P  5.45P  5.11P  4.85P   
17:45 EDT8.28P  11.06P  7.81P  6.07P  5.44P  5.10P  4.85P   
18:00 EDT8.31P  11.09P  7.83P  6.06P  5.44P  5.10P  4.85P   
18:15 EDT8.31P  11.10P  7.85P  6.04P  5.43P  5.09P  4.85P   
18:30 EDT8.31P  11.13P  7.87P  6.03P  5.42P  5.08P  4.85P   
18:45 EDT8.31P  11.13P  7.89P  6.02P  5.42P  5.07P  4.85P   
19:00 EDT8.29P  11.14P  7.89P  6.01P  5.41P  5.06P  4.85P   
19:15 EDT8.29P  11.15P  7.89P  6.00P  5.40P  5.05P  4.85P   
19:30 EDT8.28P  11.15P  7.88P  5.99P  5.39P  5.04P  4.85P   
19:45 EDT8.25P  11.15P  7.87P  5.98P  5.38P  5.05P  4.84P   
20:00 EDT8.25P  11.15P  7.85P  5.97P  5.37P  5.05P  4.84P   
20:15 EDT8.23P  11.16P  7.83P  5.96P  5.35P  5.03P  4.83P   
20:30 EDT8.20P  11.15P  7.80P  5.95P  5.35P  5.03P  4.84P   
20:45 EDT8.18P  11.14P  7.76P  5.94P  5.33P  5.02P  4.83P   
21:00 EDT8.15P  11.14P  7.72P  5.92P  5.32P  5.02P  4.83P   
21:15 EDT8.13P  11.13P  7.68P  5.91P  5.32P  5.01P  4.82P   
21:30 EDT8.11P  11.10P  7.63P  5.91P  5.30P  5.01P  4.81P   
21:45 EDT8.08P  11.09P  7.59P  5.89P  5.30P  5.00P  4.81P   
22:00 EDT8.05P  11.07P  7.54P  5.88P  5.29P  5.00P  4.80P   
22:15 EDT8.03P  11.02P  7.49P  5.87P  5.28P  4.99P  4.80P   
22:30 EDT8.00P  11.01P  7.45P  5.86P  5.27P  4.99P  4.80P   
22:45 EDT7.99P  10.98P  7.40P  5.85P  5.26P  4.98P  4.80P   
23:00 EDT7.95P  10.95P  7.35P  5.84P  5.25P  4.98P  4.82P   
23:15 EDT7.95P  10.92P  7.30P  5.83P  5.25P  4.97P  4.88P   
23:30 EDT7.93P  10.89P  7.25P  5.82P  5.24P  4.97P  4.99P   
23:45 EDT7.92P  10.85P  7.20P  5.81P  5.24P  4.97P  5.11P   
COUNT969696969696966
MAX8.3111.1610.817.155.805.235.115.29
MIN4.887.177.205.815.244.974.805.20

Explanation
  P  Provisional data subject to revision.